Time;durP1;ratioP1;P1;durP2;ratioP2;P2;SDS_P1;SDS_P2;PMS_P1;PMS_P2;Temp;Humidity;BMP_temperature;BMP_pressure;BME280_temperature;BME280_humidity;BME280_pressure;Samples;Min_cycle;Max_cycle;Signal;HPM_P1;HPM_P2
2021/05/29 00:01:08;;;;;;;3.08;1.20;;;15.50;76.40;;;;;;4925597;28;97076;-45
2021/05/29 00:03:38;;;;;;;;;;;15.60;76.50;;;;;;4930082;28;96052;-45
2021/05/29 00:06:08;;;;;;;2.65;1.20;;;15.50;76.50;;;;;;4927495;28;95847;-45
2021/05/29 00:08:40;;;;;;;;;;;15.50;76.50;;;;;;4928338;28;95911;-46
2021/05/29 00:11:11;;;;;;;1.85;0.98;;;15.50;77.10;;;;;;4926086;28;95987;-45
2021/05/29 00:13:42;;;;;;;4.07;1.67;;;15.50;76.50;;;;;;4929068;28;96135;-45
2021/05/29 00:16:14;;;;;;;2.10;1.00;;;15.60;76.70;;;;;;4928759;28;97425;-45
2021/05/29 00:18:46;;;;;;;2.42;0.90;;;15.60;76.70;;;;;;4949205;28;95912;-45
2021/05/29 00:21:17;;;;;;;;;;;15.60;76.70;;;;;;4944664;28;96635;-45
2021/05/29 00:23:47;;;;;;;2.83;1.20;;;15.60;76.70;;;;;;4948813;28;95656;-45
2021/05/29 00:26:17;;;;;;;3.08;1.52;;;15.60;76.70;;;;;;4943924;28;96024;-44
2021/05/29 00:28:47;;;;;;;1.52;1.30;;;15.60;76.70;;;;;;4949675;28;95274;-45
2021/05/29 00:31:18;;;;;;;1.42;1.05;;;15.60;76.60;;;;;;4943306;28;96959;-45
2021/05/29 00:33:50;;;;;;;4.32;1.50;;;15.70;76.70;;;;;;4943283;28;96648;-45
2021/05/29 00:36:22;;;;;;;2.83;1.25;;;15.70;76.70;;;;;;4948165;28;95733;-45
2021/05/29 00:38:52;;;;;;;1.48;1.10;;;15.70;76.70;;;;;;4964393;28;95994;-45
2021/05/29 00:41:22;;;;;;;2.00;1.23;;;15.70;76.70;;;;;;4950648;28;96065;-45
2021/05/29 00:43:54;;;;;;;1.55;0.70;;;15.70;76.70;;;;;;4944248;28;95886;-45
2021/05/29 00:46:25;;;;;;;2.15;1.05;;;15.70;76.70;;;;;;4937315;28;96011;-45
2021/05/29 00:48:55;;;;;;;2.43;0.90;;;15.70;76.80;;;;;;4927062;28;95624;-45
2021/05/29 00:51:26;;;;;;;4.00;1.17;;;15.70;76.80;;;;;;4929672;28;96407;-45
2021/05/29 00:53:57;;;;;;;2.92;1.60;;;15.80;76.90;;;;;;4901839;28;98333;-45
2021/05/29 00:56:29;;;;;;;3.22;1.20;;;15.80;77.00;;;;;;4923867;28;95786;-48
2021/05/29 00:59:04;;;;;;;1.75;0.90;;;15.90;77.10;;;;;;4925970;28;95989;-44
2021/05/29 01:01:34;;;;;;;1.90;1.10;;;16.00;77.00;;;;;;4934974;28;97040;-44
2021/05/29 01:04:04;;;;;;;2.40;1.30;;;16.10;76.70;;;;;;4944973;28;95944;-44
2021/05/29 01:06:36;;;;;;;3.22;0.98;;;16.10;76.60;;;;;;4950019;28;95763;-43
2021/05/29 01:09:07;;;;;;;2.13;1.17;;;16.20;76.40;;;;;;4941430;28;97423;-44
2021/05/29 01:11:39;;;;;;;1.60;1.10;;;16.20;76.20;;;;;;4947203;28;96085;-45
2021/05/29 01:14:10;;;;;;;2.63;1.10;;;16.20;76.20;;;;;;4942954;28;95818;-46
2021/05/29 01:16:45;;;;;;;2.47;0.90;;;16.20;75.90;;;;;;4943695;28;97200;-45
2021/05/29 01:19:16;;;;;;;3.03;1.58;;;16.30;75.80;;;;;;4943255;28;96066;-45
2021/05/29 01:21:49;;;;;;;2.53;1.27;;;16.20;75.70;;;;;;4949196;28;97141;-45
2021/05/29 01:24:22;;;;;;;2.05;0.75;;;16.30;75.70;;;;;;4940450;28;95917;-46
2021/05/29 01:26:53;;;;;;;1.60;1.02;;;16.30;75.60;;;;;;4949532;28;95286;-46
2021/05/29 01:29:24;;;;;;;1.45;1.10;;;16.40;75.50;;;;;;4952767;28;96595;-45
2021/05/29 01:32:05;;;;;;;3.92;1.60;;;16.40;75.30;;;;;;4944954;28;98110;-45
2021/05/29 01:34:37;;;;;;;2.28;1.25;;;16.40;75.20;;;;;;4943870;28;95486;-45
2021/05/29 01:37:09;;;;;;;1.67;1.15;;;16.40;75.10;;;;;;4947908;28;95363;-46
2021/05/29 01:39:40;;;;;;;2.33;0.90;;;16.40;75.10;;;;;;4940333;28;95561;-45
2021/05/29 01:42:12;;;;;;;1.40;1.15;;;16.30;75.00;;;;;;4948327;28;96273;-44
2021/05/29 01:44:43;;;;;;;1.00;0.90;;;16.30;75.00;;;;;;4942953;28;96374;-45
2021/05/29 01:47:14;;;;;;;3.85;1.13;;;16.30;75.00;;;;;;4930059;28;95549;-45
2021/05/29 01:49:46;;;;;;;1.75;0.85;;;16.30;75.00;;;;;;4923968;28;95561;-46
2021/05/29 01:52:17;;;;;;;2.60;1.10;;;16.30;75.00;;;;;;4926496;28;97496;-45
2021/05/29 01:54:48;;;;;;;2.67;0.90;;;16.40;74.90;;;;;;4925931;28;96527;-45
2021/05/29 01:57:20;;;;;;;1.60;1.02;;;16.40;74.90;;;;;;4929375;28;95900;-45
2021/05/29 01:59:51;;;;;;;1.77;0.93;;;16.40;74.90;;;;;;4925506;28;95805;-42
2021/05/29 02:02:21;;;;;;;2.20;1.10;;;16.40;74.70;;;;;;4938099;28;97836;-45
2021/05/29 02:04:51;;;;;;;3.42;1.10;;;16.40;74.70;;;;;;4944042;28;95973;-43
2021/05/29 02:07:24;;;;;;;1.95;1.17;;;16.40;74.80;;;;;;4944532;28;96016;-43
2021/05/29 02:09:56;;;;;;;2.25;1.30;;;16.30;74.60;;;;;;4947784;28;95835;-44
2021/05/29 02:12:27;;;;;;;4.78;1.40;;;16.40;74.50;;;;;;4943783;28;96370;-44
2021/05/29 02:14:58;;;;;;;;;;;16.40;74.40;;;;;;4947591;28;95770;-44
2021/05/29 02:17:30;;;;;;;1.40;1.05;;;16.40;74.30;;;;;;4943482;28;96967;-44
2021/05/29 02:20:01;;;;;;;2.67;1.48;;;16.50;73.90;;;;;;4947086;28;95791;-44
2021/05/29 02:22:31;;;;;;;1.25;0.80;;;16.50;73.10;;;;;;4941256;28;96935;-45
2021/05/29 02:25:02;;;;;;;1.25;0.63;;;16.50;73.10;;;;;;4946847;28;95858;-46
2021/05/29 02:27:33;;;;;;;2.67;1.00;;;16.50;73.10;;;;;;4944766;28;96601;-45
2021/05/29 02:30:05;;;;;;;2.13;1.23;;;16.50;73.20;;;;;;4945913;28;95847;-45
2021/05/29 02:32:37;;;;;;;2.47;0.93;;;16.60;73.40;;;;;;4940843;28;96444;-45
2021/05/29 02:35:10;;;;;;;2.15;0.90;;;16.60;73.40;;;;;;4943026;28;95895;-44
2021/05/29 02:37:40;;;;;;;3.13;1.10;;;16.60;73.20;;;;;;4943737;28;96059;-42
2021/05/29 02:40:12;;;;;;;2.63;1.00;;;16.70;73.30;;;;;;4942217;28;96040;-44
2021/05/29 02:42:43;;;;;;;5.30;1.02;;;16.70;73.10;;;;;;4944064;28;96540;-46
2021/05/29 02:45:15;;;;;;;2.95;0.80;;;16.70;73.20;;;;;;4943712;28;96006;-45
2021/05/29 02:47:46;;;;;;;2.65;1.05;;;16.80;73.40;;;;;;4942839;28;95739;-46
2021/05/29 02:50:18;;;;;;;2.03;1.00;;;16.80;73.30;;;;;;4948286;28;95712;-46
2021/05/29 02:52:50;;;;;;;4.35;0.88;;;16.80;73.30;;;;;;4936620;28;96381;-46
2021/05/29 02:55:23;;;;;;;1.52;0.95;;;16.90;73.40;;;;;;4942616;28;96913;-46
2021/05/29 02:58:00;;;;;;;1.95;1.10;;;16.90;73.50;;;;;;4943006;28;96192;-45
2021/05/29 03:00:33;;;;;;;2.08;1.20;;;17.00;73.60;;;;;;4944934;28;95649;-46
2021/05/29 03:03:04;;;;;;;4.25;1.42;;;17.10;73.60;;;;;;4940984;28;97085;-46
2021/05/29 03:05:39;;;;;;;1.73;1.00;;;17.20;73.40;;;;;;4947109;28;96323;-45
2021/05/29 03:08:10;;;;;;;2.60;0.90;;;17.30;73.20;;;;;;4945209;28;95366;-46
2021/05/29 03:10:44;;;;;;;2.28;0.98;;;17.40;72.90;;;;;;4949903;28;95347;-44
2021/05/29 03:13:15;;;;;;;1.15;0.70;;;17.40;72.80;;;;;;4945092;28;99321;-44
2021/05/29 03:15:48;;;;;;;1.65;0.70;;;17.40;72.70;;;;;;4942651;28;95972;-43
2021/05/29 03:18:22;;;;;;;1.92;0.90;;;17.40;72.70;;;;;;4940299;28;95690;-44
2021/05/29 03:20:52;;;;;;;;;;;17.30;72.70;;;;;;4951608;28;96005;-44
2021/05/29 03:23:24;;;;;;;2.75;1.10;;;17.30;72.70;;;;;;4945443;28;96083;-43
2021/05/29 03:25:54;;;;;;;2.47;1.40;;;17.30;72.80;;;;;;4948059;28;95622;-44
2021/05/29 03:28:25;;;;;;;0.85;0.73;;;17.30;72.80;;;;;;4942413;28;95847;-43
2021/05/29 03:30:56;;;;;;;1.90;0.90;;;17.30;72.70;;;;;;4938426;28;95997;-44
2021/05/29 03:33:26;;;;;;;1.60;0.73;;;17.30;72.70;;;;;;4926583;28;96175;-43
2021/05/29 03:35:56;;;;;;;2.20;0.95;;;17.40;72.70;;;;;;4927459;28;95833;-43
2021/05/29 03:38:26;;;;;;;2.50;1.17;;;17.40;72.60;;;;;;4930506;28;95870;-43
2021/05/29 03:40:56;;;;;;;1.73;0.98;;;17.40;72.50;;;;;;4944246;28;96130;-44
2021/05/29 03:43:28;;;;;;;4.07;1.03;;;17.40;72.40;;;;;;4891714;28;96588;-46
2021/05/29 03:45:59;;;;;;;2.75;1.40;;;17.50;72.70;;;;;;4927026;28;95909;-46
2021/05/29 03:48:30;;;;;;;2.60;0.77;;;17.60;72.40;;;;;;4947676;28;95333;-45
2021/05/29 03:51:02;;;;;;;3.80;1.02;;;17.70;72.10;;;;;;4940757;28;96136;-45
2021/05/29 03:53:33;;;;;;;1.75;1.17;;;17.70;72.00;;;;;;4944622;28;96133;-45
2021/05/29 03:56:05;;;;;;;1.33;0.85;;;17.80;71.60;;;;;;4939450;28;95885;-45
2021/05/29 03:58:36;;;;;;;1.95;0.90;;;17.80;71.40;;;;;;4951782;28;95573;-43
2021/05/29 04:01:05;;;;;;;2.47;0.98;;;17.80;71.30;;;;;;4945019;28;95924;-45
2021/05/29 04:03:36;;;;;;;4.22;1.13;;;17.80;71.50;;;;;;4948092;28;96076;-45
2021/05/29 04:06:08;;;;;;;1.80;1.33;;;17.80;71.50;;;;;;4943240;28;95978;-45
2021/05/29 04:08:40;;;;;;;3.30;1.30;;;17.80;71.50;;;;;;4946445;28;95913;-45
2021/05/29 04:11:11;;;;;;;1.60;1.30;;;17.80;71.20;;;;;;4941090;28;95511;-45
2021/05/29 04:13:42;;;;;;;2.25;1.10;;;17.90;71.10;;;;;;4947298;28;96953;-45
2021/05/29 04:16:13;;;;;;;2.10;1.00;;;17.90;71.00;;;;;;4936454;28;99337;-44
2021/05/29 04:18:44;;;;;;;;;;;17.80;71.00;;;;;;4942796;28;95887;-45
2021/05/29 04:21:16;;;;;;;1.13;0.83;;;17.80;70.80;;;;;;4941851;28;95886;-45
2021/05/29 04:23:46;;;;;;;3.13;1.60;;;17.90;70.80;;;;;;4944072;28;96101;-45
2021/05/29 04:26:17;;;;;;;2.28;1.30;;;17.90;70.70;;;;;;4940001;28;95968;-46
2021/05/29 04:28:48;;;;;;;2.72;1.23;;;17.90;70.80;;;;;;4944740;28;96580;-47
2021/05/29 04:31:21;;;;;;;3.50;1.20;;;18.00;70.80;;;;;;4937962;28;96084;-46
2021/05/29 04:33:51;;;;;;;2.47;1.13;;;18.00;70.80;;;;;;4944441;28;96875;-48
2021/05/29 04:36:21;;;;;;;2.92;0.93;;;18.00;70.50;;;;;;4938781;28;96449;-45
2021/05/29 04:38:52;;;;;;;1.90;1.30;;;18.00;70.40;;;;;;4945654;28;95728;-44
2021/05/29 04:41:23;;;;;;;2.00;1.30;;;18.00;70.70;;;;;;4941935;28;95737;-42
2021/05/29 04:43:54;;;;;;;1.10;0.70;;;18.00;70.80;;;;;;4943713;28;95982;-43
2021/05/29 04:46:25;;;;;;;2.65;1.60;;;18.00;70.50;;;;;;4923963;28;95741;-43
2021/05/29 04:48:56;;;;;;;1.02;0.70;;;18.10;70.70;;;;;;4939300;28;95698;-42
2021/05/29 04:51:26;;;;;;;1.17;0.75;;;18.10;70.60;;;;;;4940656;28;95992;-44
2021/05/29 04:53:57;;;;;;;1.88;0.95;;;18.20;70.50;;;;;;4944530;28;95612;-43
2021/05/29 04:56:31;;;;;;;3.17;1.55;;;18.20;70.60;;;;;;4945332;28;96404;-43
2021/05/29 04:59:02;;;;;;;1.45;0.85;;;18.20;70.50;;;;;;4946750;28;95392;-44
2021/05/29 05:01:33;;;;;;;3.03;1.45;;;18.20;70.40;;;;;;4942063;28;95830;-46
2021/05/29 05:04:06;;;;;;;2.05;1.00;;;18.20;70.10;;;;;;4941707;28;103608;-46
2021/05/29 05:06:38;;;;;;;1.45;1.13;;;18.30;70.10;;;;;;4944356;28;95659;-42
2021/05/29 05:09:09;;;;;;;1.70;0.90;;;18.30;69.80;;;;;;4939482;28;96771;-45
2021/05/29 05:11:41;;;;;;;2.92;1.88;;;18.30;69.80;;;;;;4944919;28;95582;-46
2021/05/29 05:14:12;;;;;;;2.28;1.15;;;18.30;70.10;;;;;;4941566;28;96043;-46
2021/05/29 05:16:43;;;;;;;3.08;1.00;;;18.30;69.70;;;;;;4928999;28;96156;-44
2021/05/29 05:19:15;;;;;;;2.58;1.17;;;18.30;69.60;;;;;;4922877;28;95860;-45
2021/05/29 05:21:46;;;;;;;1.38;1.00;;;18.40;69.70;;;;;;4927093;28;95891;-45
2021/05/29 05:24:16;;;;;;;3.57;1.13;;;18.40;69.40;;;;;;4917762;28;96567;-45
2021/05/29 05:26:45;;;;;;;1.67;1.20;;;18.30;69.30;;;;;;4923746;28;95498;-45
2021/05/29 05:29:15;;;;;;;1.48;1.10;;;18.30;69.20;;;;;;4921193;28;95477;-43
2021/05/29 05:31:46;;;;;;;2.40;0.95;;;18.30;69.10;;;;;;4921416;28;96022;-46
2021/05/29 05:34:16;;;;;;;1.55;1.02;;;18.30;69.30;;;;;;4922222;28;96316;-46
2021/05/29 05:36:46;;;;;;;1.58;1.02;;;18.30;69.20;;;;;;4925010;28;95806;-43
2021/05/29 05:39:16;;;;;;;6.30;1.77;;;18.30;69.40;;;;;;4923363;28;95459;-44
2021/05/29 05:41:48;;;;;;;3.10;1.52;;;18.20;69.40;;;;;;4925371;28;97330;-45
2021/05/29 05:44:19;;;;;;;;;;;18.20;69.70;;;;;;4918398;28;96361;-45
2021/05/29 05:46:50;;;;;;;4.20;1.27;;;18.20;69.50;;;;;;4927185;28;95733;-45
2021/05/29 05:49:22;;;;;;;2.47;1.20;;;18.30;69.50;;;;;;4927160;28;95609;-45
2021/05/29 05:51:53;;;;;;;2.72;1.52;;;18.20;69.30;;;;;;4931292;28;95953;-46
2021/05/29 05:54:24;;;;;;;;;;;18.20;69.50;;;;;;4941815;28;98058;-46
2021/05/29 05:56:55;;;;;;;3.25;1.80;;;18.20;69.30;;;;;;4927698;28;95853;-45
2021/05/29 05:59:27;;;;;;;4.43;1.77;;;18.20;69.40;;;;;;4926052;28;101079;-45
2021/05/29 06:01:58;;;;;;;5.78;1.90;;;18.10;69.50;;;;;;4934625;28;96111;-46
2021/05/29 06:04:28;;;;;;;3.60;1.42;;;18.10;69.60;;;;;;4941715;28;96828;-45
2021/05/29 06:06:59;;;;;;;3.72;1.88;;;18.00;69.60;;;;;;4948812;28;95934;-45
2021/05/29 06:09:31;;;;;;;3.97;1.90;;;18.00;69.60;;;;;;4944762;28;95703;-45
2021/05/29 06:12:05;;;;;;;4.97;1.73;;;18.00;69.70;;;;;;4947904;28;95459;-46
2021/05/29 06:20:15;;;;;;;5.90;2.08;;;17.90;69.90;;;;;;4940381;28;96575;-45
2021/05/29 06:22:45;;;;;;;3.77;1.83;;;17.90;70.00;;;;;;4949164;28;96162;-45
2021/05/29 06:25:16;;;;;;;3.05;1.52;;;17.80;70.00;;;;;;4943127;28;96178;-45
2021/05/29 06:27:48;;;;;;;3.90;2.10;;;17.70;70.10;;;;;;4945266;28;95462;-45
2021/05/29 06:30:20;;;;;;;3.00;1.70;;;17.70;70.10;;;;;;4941307;28;95696;-46
2021/05/29 06:32:49;;;;;;;3.10;1.65;;;17.70;70.20;;;;;;4945624;28;95877;-46
2021/05/29 06:35:19;;;;;;;3.78;2.13;;;17.70;70.30;;;;;;4945503;28;96092;-46
2021/05/29 06:37:49;;;;;;;5.60;1.80;;;17.70;70.20;;;;;;4946928;28;95865;-46
2021/05/29 06:40:19;;;;;;;2.38;1.77;;;17.70;70.20;;;;;;4948922;28;95684;-45
2021/05/29 06:42:52;;;;;;;5.85;2.72;;;17.60;70.20;;;;;;4938033;28;95795;-45
2021/05/29 06:45:23;;;;;;;4.32;1.77;;;17.60;70.30;;;;;;4944882;28;96244;-45
2021/05/29 06:47:56;;;;;;;6.43;1.90;;;17.60;70.50;;;;;;4924849;28;95904;-44
2021/05/29 06:50:27;;;;;;;3.88;1.70;;;17.60;70.40;;;;;;4928082;28;96156;-45
2021/05/29 06:52:59;;;;;;;3.22;1.90;;;17.60;70.80;;;;;;4925806;28;96485;-44
2021/05/29 06:58:49;;;;;;;3.33;1.83;;;17.50;71.10;;;;;;4924638;28;95930;-46
2021/05/29 07:01:22;;;;;;;3.70;1.73;;;17.50;71.10;;;;;;4927965;28;95787;-45
2021/05/29 07:03:54;;;;;;;7.60;2.33;;;17.50;71.40;;;;;;4929032;28;95479;-45
2021/05/29 07:06:26;;;;;;;4.53;2.00;;;17.50;71.70;;;;;;4926816;28;96782;-44
2021/05/29 07:08:57;;;;;;;;;;;17.40;71.40;;;;;;4927165;28;96989;-44
2021/05/29 07:11:29;;;;;;;4.03;2.10;;;17.40;71.30;;;;;;4931745;28;95990;-44
2021/05/29 07:14:02;;;;;;;3.45;2.13;;;17.40;71.30;;;;;;4919234;28;95898;-45
2021/05/29 07:16:54;;;;;;;5.28;2.30;;;17.30;71.30;;;;;;4921065;28;96455;-45
2021/05/29 07:19:28;;;;;;;4.45;2.35;;;17.30;71.40;;;;;;4927195;28;95599;-44
2021/05/29 07:21:59;;;;;;;5.32;2.47;;;17.30;71.30;;;;;;4926873;28;96082;-45
2021/05/29 07:24:31;;;;;;;3.70;2.37;;;17.30;71.00;;;;;;4922924;28;98253;-45
2021/05/29 07:27:01;;;;;;;5.50;2.65;;;17.30;71.70;;;;;;4927575;28;96094;-45
2021/05/29 07:29:31;;;;;;;4.63;2.35;;;17.50;71.30;;;;;;4925020;28;96009;-45
2021/05/29 07:32:01;;;;;;;4.75;2.90;;;17.50;71.00;;;;;;4934298;28;95637;-45
2021/05/29 07:34:31;;;;;;;6.65;3.60;;;17.40;70.90;;;;;;4940081;28;102912;-45
2021/05/29 07:37:02;;;;;;;4.75;2.83;;;17.40;70.90;;;;;;4946984;28;96415;-46
2021/05/29 07:39:35;;;;;;;5.13;3.33;;;17.40;71.00;;;;;;4940262;28;97758;-45
2021/05/29 07:42:08;;;;;;;5.75;3.03;;;17.40;71.10;;;;;;4946295;28;95937;-44
2021/05/29 07:44:40;;;;;;;5.35;3.00;;;17.40;71.00;;;;;;4939363;28;95926;-45
2021/05/29 07:47:12;;;;;;;7.07;3.40;;;17.30;71.10;;;;;;4928878;28;97774;-45
2021/05/29 07:49:43;;;;;;;9.98;4.85;;;17.30;71.20;;;;;;4926464;28;95977;-45
2021/05/29 07:52:14;;;;;;;13.13;5.70;;;17.30;72.00;;;;;;4928649;28;95923;-44
2021/05/29 07:54:45;;;;;;;11.48;7.50;;;17.40;73.40;;;;;;4925113;28;95498;-44
2021/05/29 07:57:16;;;;;;;13.35;7.40;;;17.40;73.20;;;;;;4939729;28;96797;-41
2021/05/29 07:59:46;;;;;;;17.45;8.57;;;17.50;73.50;;;;;;4930688;28;95657;-45
2021/05/29 08:02:16;;;;;;;16.17;8.35;;;17.50;73.60;;;;;;4934814;28;96093;-37
2021/05/29 08:04:46;;;;;;;14.48;9.85;;;17.50;73.60;;;;;;4943070;28;96258;-38
2021/05/29 08:07:16;;;;;;;20.08;11.48;;;17.50;74.10;;;;;;4946628;28;96225;-37
2021/05/29 08:09:49;;;;;;;18.48;11.73;;;17.50;73.90;;;;;;4939502;28;95988;-37
2021/05/29 08:12:21;;;;;;;19.70;11.35;;;17.50;74.00;;;;;;4944854;28;95861;-36
2021/05/29 08:14:52;;;;;;;19.17;12.07;;;17.50;73.90;;;;;;4942930;28;96109;-37
2021/05/29 08:17:27;;;;;;;23.95;13.93;;;17.50;74.00;;;;;;4940211;28;96865;-45
2021/05/29 08:20:00;;;;;;;22.77;12.70;;;17.50;74.20;;;;;;4940618;28;95811;-44
2021/05/29 08:22:30;;;;;;;27.10;15.75;;;17.50;74.60;;;;;;4946136;28;95677;-43
2021/05/29 08:25:00;;;;;;;24.48;14.98;;;17.50;74.30;;;;;;4939805;28;95714;-43
2021/05/29 08:27:30;;;;;;;26.27;16.02;;;17.50;74.40;;;;;;4943447;28;96684;-43
2021/05/29 08:30:01;;;;;;;29.08;16.17;;;17.50;74.90;;;;;;4939140;28;96513;-43
2021/05/29 08:32:32;;;;;;;34.72;18.63;;;17.60;74.30;;;;;;4941425;28;96111;-44
2021/05/29 08:35:05;;;;;;;32.33;19.05;;;17.60;73.90;;;;;;4939038;28;95762;-44
2021/05/29 08:37:36;;;;;;;27.00;16.52;;;17.60;73.60;;;;;;4940065;28;96220;-45
2021/05/29 08:40:08;;;;;;;30.98;17.15;;;17.60;73.40;;;;;;4946289;28;95875;-44
2021/05/29 08:42:41;;;;;;;31.80;18.08;;;17.70;73.50;;;;;;4944732;28;96066;-41
2021/05/29 08:45:17;;;;;;;26.83;17.00;;;17.70;73.20;;;;;;4939862;28;95703;-43
2021/05/29 08:47:49;;;;;;;26.80;16.88;;;17.80;73.20;;;;;;4940025;28;100899;-44
2021/05/29 08:50:22;;;;;;;28.65;17.83;;;17.80;72.90;;;;;;4946560;28;95778;-42
2021/05/29 08:52:55;;;;;;;27.42;17.50;;;17.80;73.50;;;;;;4937245;28;95861;-44
2021/05/29 08:55:28;;;;;;;32.13;19.10;;;17.80;74.10;;;;;;4939117;28;95859;-43
2021/05/29 08:57:59;;;;;;;34.15;18.63;;;17.70;74.10;;;;;;4938859;28;96448;-43
2021/05/29 09:00:29;;;;;;;33.22;19.27;;;17.70;74.00;;;;;;4942122;28;96125;-43
2021/05/29 09:03:11;;;;;;;29.92;19.00;;;17.70;74.00;;;;;;4939252;28;96035;-44
2021/05/29 09:05:51;;;;;;;27.00;17.50;;;17.60;73.90;;;;;;4945892;28;95616;-41
2021/05/29 09:08:27;;;;;;;28.52;19.38;;;17.60;74.30;;;;;;4942364;28;96322;-43
2021/05/29 09:11:02;;;;;;;30.08;19.45;;;17.50;74.40;;;;;;4945074;28;95600;-43
2021/05/29 09:13:32;;;;;;;28.70;19.13;;;17.50;74.50;;;;;;4940047;28;95935;-45
2021/05/29 09:16:05;;;;;;;27.42;17.65;;;17.50;74.50;;;;;;4941711;28;95458;-43
2021/05/29 09:18:45;;;;;;;29.88;19.27;;;17.50;74.50;;;;;;4943722;28;96058;-42
2021/05/29 09:21:27;;;;;;;25.48;17.90;;;17.40;74.40;;;;;;4945886;28;95927;-43
2021/05/29 09:24:05;;;;;;;29.73;19.27;;;17.40;74.30;;;;;;4942997;28;95394;-43
2021/05/29 09:26:45;;;;;;;28.52;18.92;;;17.30;74.10;;;;;;4947222;28;96231;-43
2021/05/29 09:29:17;;;;;;;27.30;17.80;;;17.30;74.10;;;;;;4941038;28;96108;-43
2021/05/29 09:32:06;;;;;;;29.35;18.00;;;17.30;74.80;;;;;;4944400;28;96619;-44
2021/05/29 09:34:40;;;;;;;24.55;16.90;;;17.20;74.10;;;;;;4941898;28;95735;-43
2021/05/29 09:37:22;;;;;;;25.33;16.02;;;17.20;74.20;;;;;;4945658;28;95823;-43
2021/05/29 09:39:57;;;;;;;27.08;16.77;;;17.10;74.30;;;;;;4947362;28;96212;-43
2021/05/29 09:42:38;;;;;;;31.02;18.08;;;17.10;74.30;;;;;;4946687;28;95788;-43
2021/05/29 09:45:28;;;;;;;28.42;16.98;;;17.10;74.60;;;;;;4947016;28;95940;-44
2021/05/29 09:48:23;;;;;;;27.45;17.10;;;17.10;74.60;;;;;;4944703;28;95713;-42
2021/05/29 09:51:11;;;;;;;28.00;17.30;;;17.10;74.70;;;;;;4947474;28;96189;-42
2021/05/29 09:53:48;;;;;;;29.55;17.58;;;17.00;74.60;;;;;;4942417;28;96139;-43
2021/05/29 09:56:42;;;;;;;25.50;16.60;;;17.00;74.80;;;;;;4941041;28;95901;-44
2021/05/29 09:59:20;;;;;;;26.17;16.50;;;17.00;74.90;;;;;;4940543;28;95890;-43
2021/05/29 10:01:57;;;;;;;27.50;16.13;;;17.00;74.70;;;;;;4940352;28;96647;-43
2021/05/29 10:04:42;;;;;;;22.80;15.10;;;16.90;74.90;;;;;;4943494;28;95738;-44
2021/05/29 10:07:14;;;;;;;24.88;16.65;;;16.90;74.90;;;;;;4946796;28;95868;-43
2021/05/29 10:09:47;;;;;;;22.10;15.15;;;16.80;74.70;;;;;;4942681;28;95570;-41
2021/05/29 10:12:20;;;;;;;23.13;15.52;;;16.80;74.90;;;;;;4946564;28;96388;-44
2021/05/29 10:14:53;;;;;;;23.50;15.13;;;16.80;75.10;;;;;;4940563;28;96490;-42
2021/05/29 10:17:31;;;;;;;21.98;14.93;;;16.80;75.10;;;;;;4925490;28;96040;-42
2021/05/29 10:20:03;;;;;;;22.25;14.20;;;16.90;74.90;;;;;;4922405;28;95255;-42
2021/05/29 10:22:34;;;;;;;22.20;14.32;;;16.90;74.80;;;;;;4926556;28;96111;-42
2021/05/29 10:25:10;;;;;;;;;;;16.80;74.70;;;;;;4923321;28;95933;-43
2021/05/29 10:27:51;;;;;;;21.48;13.68;;;16.80;74.60;;;;;;4941307;28;95818;-42
2021/05/29 10:30:24;;;;;;;21.10;13.77;;;16.80;74.40;;;;;;4920700;28;95836;-44
2021/05/29 10:33:16;;;;;;;19.30;12.90;;;16.80;74.30;;;;;;4944762;28;96062;-43
2021/05/29 10:35:48;;;;;;;24.30;13.60;;;16.70;74.30;;;;;;4939867;28;96071;-42
2021/05/29 10:38:23;;;;;;;22.45;14.23;;;16.70;74.10;;;;;;4945709;28;95185;-41
2021/05/29 10:40:55;;;;;;;23.65;14.55;;;16.70;74.10;;;;;;4940862;28;96081;-42
2021/05/29 10:43:33;;;;;;;22.48;13.18;;;16.60;74.20;;;;;;4943809;28;96443;-41
2021/05/29 10:46:11;;;;;;;19.40;12.52;;;16.70;75.30;;;;;;4937766;28;95894;-43
2021/05/29 10:48:47;;;;;;;16.40;11.48;;;16.60;74.80;;;;;;4947833;28;95828;-42
2021/05/29 10:51:18;;;;;;;17.15;12.77;;;16.60;74.60;;;;;;4939667;28;95663;-42
2021/05/29 10:53:57;;;;;;;20.67;13.70;;;16.60;74.80;;;;;;4938617;28;96553;-42
2021/05/29 10:56:31;;;;;;;21.77;13.75;;;16.50;74.80;;;;;;4937500;28;96110;-43
2021/05/29 10:59:08;;;;;;;23.27;13.93;;;16.50;74.80;;;;;;4946415;28;96016;-45
2021/05/29 11:04:23;;;;;;;;;;;16.50;74.80;;;;;;4943185;28;98005;-43
2021/05/29 11:07:23;;;;;;;17.25;11.63;;;16.50;74.90;;;;;;4945805;28;95588;-44
2021/05/29 11:09:57;;;;;;;18.80;12.18;;;16.40;74.50;;;;;;4947050;28;96068;-46
2021/05/29 11:12:49;;;;;;;16.23;12.13;;;16.40;74.10;;;;;;4941861;28;95376;-44
2021/05/29 11:15:42;;;;;;;;;;;16.40;73.40;;;;;;4940759;28;96973;-41
2021/05/29 11:18:13;;;;;;;17.25;11.45;;;16.30;73.50;;;;;;4923313;28;101728;-44
2021/05/29 11:21:09;;;;;;;17.67;12.15;;;16.30;74.00;;;;;;4926853;28;95279;-43
2021/05/29 11:23:39;;;;;;;15.90;11.38;;;16.30;74.40;;;;;;4922945;28;98607;-47
2021/05/29 11:26:09;;;;;;;17.67;11.13;;;16.30;74.40;;;;;;4926895;28;96962;-43
2021/05/29 11:28:41;;;;;;;16.52;11.80;;;16.30;74.50;;;;;;4919707;28;101522;-42
2021/05/29 11:31:13;;;;;;;16.40;11.50;;;16.20;74.40;;;;;;4923221;28;97319;-43
2021/05/29 11:33:56;;;;;;;18.42;10.73;;;16.20;75.20;;;;;;4922043;28;95874;-44
2021/05/29 11:36:31;;;;;;;17.13;11.57;;;16.20;74.60;;;;;;4926292;28;96128;-42
2021/05/29 11:39:20;;;;;;;14.32;10.48;;;16.20;74.70;;;;;;4923842;28;95442;-41
2021/05/29 11:42:01;;;;;;;13.80;10.18;;;16.10;74.80;;;;;;4925333;28;95684;-41
2021/05/29 11:44:35;;;;;;;13.23;10.05;;;16.10;74.70;;;;;;4923619;28;95748;-43
2021/05/29 11:47:19;;;;;;;15.18;11.13;;;16.00;74.90;;;;;;4931751;28;96587;-42
2021/05/29 11:49:52;;;;;;;16.27;10.85;;;16.00;74.90;;;;;;4942014;28;95494;-42
2021/05/29 11:52:23;;;;;;;16.75;11.07;;;15.90;74.80;;;;;;4944687;28;95920;-43
2021/05/29 11:54:58;;;;;;;14.15;10.25;;;16.00;75.00;;;;;;4931584;28;97119;-43
2021/05/29 11:57:30;;;;;;;14.80;10.80;;;15.90;74.90;;;;;;4945065;28;96401;-43
2021/05/29 12:00:09;;;;;;;13.37;9.60;;;15.90;75.00;;;;;;4937509;28;97701;-41
2021/05/29 12:02:52;;;;;;;15.45;11.27;;;15.80;74.90;;;;;;4943672;28;95652;-41
2021/05/29 12:05:37;;;;;;;16.20;10.88;;;15.80;75.00;;;;;;4941445;28;95516;-42
2021/05/29 12:08:08;;;;;;;16.60;11.05;;;15.80;74.90;;;;;;4944597;28;97073;-42
2021/05/29 12:10:53;;;;;;;15.65;11.13;;;15.70;74.60;;;;;;4940315;28;96798;-43
2021/05/29 12:13:24;;;;;;;16.25;11.18;;;15.70;74.50;;;;;;4945629;28;95482;-43
2021/05/29 12:16:04;;;;;;;12.85;9.98;;;15.70;74.40;;;;;;4944422;28;96110;-43
2021/05/29 12:18:40;;;;;;;16.13;10.75;;;15.70;74.30;;;;;;4950211;28;96804;-43
2021/05/29 12:21:14;;;;;;;14.95;9.10;;;15.70;74.20;;;;;;4942622;28;98378;-42
2021/05/29 12:23:51;;;;;;;14.30;10.40;;;15.70;74.20;;;;;;4945839;28;95385;-42
2021/05/29 12:26:22;;;;;;;15.60;10.50;;;15.70;73.90;;;;;;4946645;28;95947;-43
2021/05/29 12:28:54;;;;;;;14.73;9.68;;;15.70;73.80;;;;;;4945498;28;96097;-44
2021/05/29 12:31:41;;;;;;;13.48;9.38;;;15.70;73.60;;;;;;4933175;28;99185;-42
2021/05/29 12:34:11;;;;;;;12.35;9.60;;;15.70;73.50;;;;;;4944293;28;95827;-42
2021/05/29 12:36:57;;;;;;;16.25;10.55;;;15.70;73.40;;;;;;4941111;28;96027;-43
2021/05/29 12:39:45;;;;;;;14.38;10.70;;;15.60;73.30;;;;;;4936872;28;97970;-43
2021/05/29 12:42:33;;;;;;;12.02;9.20;;;15.60;73.30;;;;;;4944555;28;95842;-42
2021/05/29 12:45:23;;;;;;;12.65;8.93;;;15.60;73.20;;;;;;4932804;28;96268;-44
2021/05/29 12:48:10;;;;;;;13.88;9.68;;;15.60;73.20;;;;;;4950983;28;95502;-43
2021/05/29 12:53:36;;;;;;;13.90;9.57;;;15.50;72.90;;;;;;4943667;28;97631;-42
2021/05/29 12:56:15;;;;;;;14.43;10.00;;;15.50;72.90;;;;;;4942097;28;96113;-43
2021/05/29 12:59:03;;;;;;;11.25;9.07;;;15.50;72.80;;;;;;4944623;28;95947;-42
2021/05/29 13:02:02;;;;;;;14.75;10.05;;;15.50;72.90;;;;;;4937391;28;98248;-43
2021/05/29 13:07:42;;;;;;;13.65;9.02;;;15.40;72.70;;;;;;4941752;28;97848;-43
2021/05/29 13:13:07;;;;;;;13.95;9.85;;;15.40;72.70;;;;;;4940668;28;96125;-43
2021/05/29 13:15:39;;;;;;;12.18;9.52;;;15.40;72.60;;;;;;4950075;28;96112;-44
2021/05/29 13:18:18;;;;;;;12.10;8.85;;;15.30;72.50;;;;;;4936925;28;95651;-42
2021/05/29 13:21:03;;;;;;;15.40;9.63;;;15.30;72.40;;;;;;4946322;28;95762;-44
2021/05/29 13:23:43;;;;;;;12.15;9.68;;;15.30;72.50;;;;;;4945219;28;96321;-44
2021/05/29 13:26:15;;;;;;;11.93;9.02;;;15.30;72.40;;;;;;4940785;28;96024;-44
2021/05/29 13:28:50;;;;;;;11.65;8.52;;;15.20;72.30;;;;;;4942204;28;95365;-43
2021/05/29 13:31:20;;;;;;;13.05;9.55;;;15.20;72.20;;;;;;4940474;28;96101;-43
2021/05/29 13:33:58;;;;;;;13.93;9.77;;;15.20;72.30;;;;;;4943850;28;96296;-44
2021/05/29 13:36:30;;;;;;;10.77;7.93;;;15.20;72.40;;;;;;4943055;28;96240;-44